Terminal Aerodrome Forecast
Issued by NWS Pueblo, CO

Home | Current Version | Previous Version | Text Only | Print | Product List | Glossary On
Versions: 1 2 3 4 5 6 7 8 9 10 11 12 13 14 15 16 17 18 19 20 21 22 23 24 25 26 27 28 29 30 31 32 33 34 35 36
000
FTUS45 KPUB 201720
TAFCOS
TAF
KCOS 201720Z 2018/2118 04009KT P6SM SCT100 OVC250
     FM202100 09011KT P6SM VCTS SCT090CB OVC200
      TEMPO 2022/2024 VRB15G30KT -TSRA BKN090CB
     FM210100 33012G22KT P6SM SCT100 BKN200
     FM210600 35011KT P6SM SCT100 BKN200
     FM211100 VRB05KT P6SM BKN140=

USA.gov is the U.S. government's official web portal to all federal, state and local government web resources and services.